sensor_id;sensor_type;location;lat;lon;timestamp;pressure;altitude;pressure_sealevel;temperature;humidity
26489;BME280;14169;43.684;10.484;2023-02-23T00:00:30;101557.78;;;9.55;100.00
26489;BME280;14169;43.684;10.484;2023-02-23T00:02:59;101548.22;;;9.56;100.00
26489;BME280;14169;43.684;10.484;2023-02-23T00:05:27;101554.28;;;9.56;100.00
26489;BME280;14169;43.684;10.484;2023-02-23T00:07:53;101546.53;;;9.53;100.00
26489;BME280;14169;43.684;10.484;2023-02-23T00:10:18;101550.00;;;9.52;100.00
26489;BME280;14169;43.684;10.484;2023-02-23T00:12:46;101558.63;;;9.56;100.00
26489;BME280;14169;43.684;10.484;2023-02-23T00:15:11;101551.66;;;9.58;100.00
26489;BME280;14169;43.684;10.484;2023-02-23T00:17:37;101562.06;;;9.56;100.00
26489;BME280;14169;43.684;10.484;2023-02-23T00:20:06;101555.19;;;9.52;100.00
26489;BME280;14169;43.684;10.484;2023-02-23T00:22:33;101550.00;;;9.52;100.00
26489;BME280;14169;43.684;10.484;2023-02-23T00:24:59;101544.78;;;9.54;100.00
26489;BME280;14169;43.684;10.484;2023-02-23T00:27:24;101547.38;;;9.55;100.00
26489;BME280;14169;43.684;10.484;2023-02-23T00:29:50;101544.69;;;9.60;100.00
26489;BME280;14169;43.684;10.484;2023-02-23T00:32:16;101543.84;;;9.59;100.00
26489;BME280;14169;43.684;10.484;2023-02-23T00:34:45;101540.31;;;9.63;100.00
26489;BME280;14169;43.684;10.484;2023-02-23T00:37:14;101537.75;;;9.62;100.00
26489;BME280;14169;43.684;10.484;2023-02-23T00:39:40;101531.66;;;9.61;100.00
26489;BME280;14169;43.684;10.484;2023-02-23T00:42:05;101528.91;;;9.70;100.00
26489;BME280;14169;43.684;10.484;2023-02-23T00:44:32;101534.00;;;9.76;100.00
26489;BME280;14169;43.684;10.484;2023-02-23T00:46:58;101533.19;;;9.74;100.00
26489;BME280;14169;43.684;10.484;2023-02-23T00:49:23;101528.81;;;9.76;100.00
26489;BME280;14169;43.684;10.484;2023-02-23T00:51:49;101522.69;;;9.80;100.00
26489;BME280;14169;43.684;10.484;2023-02-23T00:54:17;101527.06;;;9.77;100.00
26489;BME280;14169;43.684;10.484;2023-02-23T00:56:42;101524.44;;;9.80;100.00
26489;BME280;14169;43.684;10.484;2023-02-23T00:59:08;101526.13;;;9.82;100.00
26489;BME280;14169;43.684;10.484;2023-02-23T01:01:34;101526.91;;;9.86;100.00
26489;BME280;14169;43.684;10.484;2023-02-23T01:04:02;101522.59;;;9.85;100.00
26489;BME280;14169;43.684;10.484;2023-02-23T01:06:27;101531.34;;;9.81;100.00
26489;BME280;14169;43.684;10.484;2023-02-23T01:08:53;101529.00;;;9.66;100.00
26489;BME280;14169;43.684;10.484;2023-02-23T01:11:23;101530.13;;;9.50;100.00
26489;BME280;14169;43.684;10.484;2023-02-23T01:13:54;101533.81;;;9.32;100.00
26489;BME280;14169;43.684;10.484;2023-02-23T01:16:21;101529.56;;;9.27;100.00
26489;BME280;14169;43.684;10.484;2023-02-23T01:18:50;101533.06;;;9.24;100.00
26489;BME280;14169;43.684;10.484;2023-02-23T01:21:28;101531.47;;;9.15;100.00
26489;BME280;14169;43.684;10.484;2023-02-23T01:23:54;101528.91;;;9.11;100.00
26489;BME280;14169;43.684;10.484;2023-02-23T01:26:23;101529.84;;;9.07;100.00
26489;BME280;14169;43.684;10.484;2023-02-23T01:28:50;101533.34;;;9.03;100.00
26489;BME280;14169;43.684;10.484;2023-02-23T01:31:16;101532.47;;;9.05;100.00
26489;BME280;14169;43.684;10.484;2023-02-23T01:33:42;101532.47;;;9.05;100.00
26489;BME280;14169;43.684;10.484;2023-02-23T01:36:08;101531.56;;;9.08;100.00
26489;BME280;14169;43.684;10.484;2023-02-23T01:38:33;101539.34;;;9.09;100.00
26489;BME280;14169;43.684;10.484;2023-02-23T01:40:59;101531.56;;;9.08;100.00
26489;BME280;14169;43.684;10.484;2023-02-23T01:43:24;101527.25;;;9.05;100.00
26489;BME280;14169;43.684;10.484;2023-02-23T01:45:54;101528.97;;;9.06;100.00
26489;BME280;14169;43.684;10.484;2023-02-23T01:48:26;101528.09;;;9.09;100.00
26489;BME280;14169;43.684;10.484;2023-02-23T01:51:02;101525.56;;;9.03;100.00
26489;BME280;14169;43.684;10.484;2023-02-23T01:53:33;101516.91;;;9.02;100.00
26489;BME280;14169;43.684;10.484;2023-02-23T01:56:09;101519.53;;;8.99;100.00
26489;BME280;14169;43.684;10.484;2023-02-23T01:58:38;101516.91;;;8.99;100.00
26489;BME280;14169;43.684;10.484;2023-02-23T02:01:05;101510.00;;;9.01;100.00
26489;BME280;14169;43.684;10.484;2023-02-23T02:03:40;101507.38;;;9.03;100.00
26489;BME280;14169;43.684;10.484;2023-02-23T02:06:08;101497.88;;;9.02;100.00
26489;BME280;14169;43.684;10.484;2023-02-23T02:08:36;101507.44;;;9.00;100.00
26489;BME280;14169;43.684;10.484;2023-02-23T02:11:14;101507.47;;;8.94;100.00
26489;BME280;14169;43.684;10.484;2023-02-23T02:14:12;101497.19;;;8.83;100.00
26489;BME280;14169;43.684;10.484;2023-02-23T02:17:15;101489.53;;;8.73;100.00
26489;BME280;14169;43.684;10.484;2023-02-23T02:29:23;101484.66;;;8.47;100.00
26489;BME280;14169;43.684;10.484;2023-02-23T02:37:14;101484.88;;;8.24;100.00
26489;BME280;14169;43.684;10.484;2023-02-23T02:39:59;101474.56;;;8.21;100.00
26489;BME280;14169;43.684;10.484;2023-02-23T02:43:00;101489.25;;;8.21;100.00
26489;BME280;14169;43.684;10.484;2023-02-23T02:45:58;101484.94;;;8.21;100.00
26489;BME280;14169;43.684;10.484;2023-02-23T02:51:06;101479.72;;;8.23;100.00
26489;BME280;14169;43.684;10.484;2023-02-23T02:56:17;101480.59;;;8.20;100.00
26489;BME280;14169;43.684;10.484;2023-02-23T02:58:45;101473.72;;;8.19;100.00
26489;BME280;14169;43.684;10.484;2023-02-23T03:01:15;101471.16;;;8.18;100.00
26489;BME280;14169;43.684;10.484;2023-02-23T03:04:03;101472.03;;;8.15;100.00
26489;BME280;14169;43.684;10.484;2023-02-23T03:07:07;101471.16;;;8.18;100.00
26489;BME280;14169;43.684;10.484;2023-02-23T03:11:20;101470.25;;;8.19;100.00
26489;BME280;14169;43.684;10.484;2023-02-23T03:19:44;101468.47;;;8.25;100.00
26489;BME280;14169;43.684;10.484;2023-02-23T03:22:37;101470.16;;;8.26;100.00
26489;BME280;14169;43.684;10.484;2023-02-23T03:28:13;101467.38;;;8.43;100.00
26489;BME280;14169;43.684;10.484;2023-02-23T03:31:13;101467.34;;;8.48;100.00
26489;BME280;14169;43.684;10.484;2023-02-23T03:34:08;101464.72;;;8.52;100.00
26489;BME280;14169;43.684;10.484;2023-02-23T03:37:38;101462.94;;;8.53;100.00
26489;BME280;14169;43.684;10.484;2023-02-23T03:40:29;101459.50;;;8.51;100.00
26489;BME280;14169;43.684;10.484;2023-02-23T03:43:24;101458.59;;;8.55;100.00
26489;BME280;14169;43.684;10.484;2023-02-23T03:46:11;101452.44;;;8.60;100.00
26489;BME280;14169;43.684;10.484;2023-02-23T03:48:59;101456.72;;;8.64;100.00
26489;BME280;14169;43.684;10.484;2023-02-23T03:51:46;101451.59;;;8.61;100.00
26489;BME280;14169;43.684;10.484;2023-02-23T03:54:35;101449.84;;;8.63;100.00
26489;BME280;14169;43.684;10.484;2023-02-23T03:57:24;101445.53;;;8.61;100.00
26489;BME280;14169;43.684;10.484;2023-02-23T04:00:14;101448.09;;;8.62;100.00
26489;BME280;14169;43.684;10.484;2023-02-23T04:03:01;101452.44;;;8.60;100.00
26489;BME280;14169;43.684;10.484;2023-02-23T04:05:47;101449.94;;;8.56;100.00
26489;BME280;14169;43.684;10.484;2023-02-23T04:08:35;101445.66;;;8.52;100.00
26489;BME280;14169;43.684;10.484;2023-02-23T04:11:39;101450.78;;;8.56;100.00
26489;BME280;14169;43.684;10.484;2023-02-23T04:14:30;101449.03;;;8.57;100.00
26489;BME280;14169;43.684;10.484;2023-02-23T04:16:59;101444.75;;;8.53;100.00
26489;BME280;14169;43.684;10.484;2023-02-23T04:19:26;101447.38;;;8.51;100.00
26489;BME280;14169;43.684;10.484;2023-02-23T04:21:52;101447.44;;;8.47;100.00
26489;BME280;14169;43.684;10.484;2023-02-23T04:24:18;101447.50;;;8.40;100.00
26489;BME280;14169;43.684;10.484;2023-02-23T04:26:43;101438.09;;;8.33;100.00
26489;BME280;14169;43.684;10.484;2023-02-23T04:29:12;101440.69;;;8.30;100.00
26489;BME280;14169;43.684;10.484;2023-02-23T04:31:38;101446.78;;;8.29;100.00
26489;BME280;14169;43.684;10.484;2023-02-23T04:34:05;101448.56;;;8.24;100.00
26489;BME280;14169;43.684;10.484;2023-02-23T04:36:31;101451.22;;;8.18;100.00
26489;BME280;14169;43.684;10.484;2023-02-23T04:38:56;101452.13;;;8.16;100.00
26489;BME280;14169;43.684;10.484;2023-02-23T04:41:22;101450.44;;;8.12;100.00
26489;BME280;14169;43.684;10.484;2023-02-23T04:43:47;101446.16;;;8.08;100.00
26489;BME280;14169;43.684;10.484;2023-02-23T04:46:13;101446.16;;;8.06;100.00
26489;BME280;14169;43.684;10.484;2023-02-23T04:48:38;101451.38;;;8.03;100.00
26489;BME280;14169;43.684;10.484;2023-02-23T04:51:04;101443.66;;;7.99;100.00
26489;BME280;14169;43.684;10.484;2023-02-23T04:53:29;101448.00;;;7.95;100.00
26489;BME280;14169;43.684;10.484;2023-02-23T04:55:55;101445.44;;;7.92;100.00
26489;BME280;14169;43.684;10.484;2023-02-23T04:58:20;101454.13;;;7.90;100.00
26489;BME280;14169;43.684;10.484;2023-02-23T05:00:46;101450.69;;;7.88;100.00
26489;BME280;14169;43.684;10.484;2023-02-23T05:03:11;101444.66;;;7.86;100.00
26489;BME280;14169;43.684;10.484;2023-02-23T05:05:37;101450.72;;;7.83;100.00
26489;BME280;14169;43.684;10.484;2023-02-23T05:08:04;101460.25;;;7.81;100.00
26489;BME280;14169;43.684;10.484;2023-02-23T05:10:29;101456.00;;;7.76;100.00
26489;BME280;14169;43.684;10.484;2023-02-23T05:12:56;101455.16;;;7.71;100.00
26489;BME280;14169;43.684;10.484;2023-02-23T05:15:22;101452.63;;;7.63;100.00
26489;BME280;14169;43.684;10.484;2023-02-23T05:17:47;101453.50;;;7.61;100.00
26489;BME280;14169;43.684;10.484;2023-02-23T05:20:13;101457.00;;;7.60;100.00
26489;BME280;14169;43.684;10.484;2023-02-23T05:22:39;101458.66;;;7.65;100.00
26489;BME280;14169;43.684;10.484;2023-02-23T05:25:06;101456.03;;;7.71;100.00
26489;BME280;14169;43.684;10.484;2023-02-23T05:27:32;101459.47;;;7.73;100.00
26489;BME280;14169;43.684;10.484;2023-02-23T05:29:58;101452.56;;;7.71;100.00
26489;BME280;14169;43.684;10.484;2023-02-23T05:32:24;101464.66;;;7.72;100.00
26489;BME280;14169;43.684;10.484;2023-02-23T05:34:49;101456.06;;;7.68;100.00
26489;BME280;14169;43.684;10.484;2023-02-23T05:37:15;101457.81;;;7.63;100.00
26489;BME280;14169;43.684;10.484;2023-02-23T05:39:40;101456.97;;;7.61;100.00
26489;BME280;14169;43.684;10.484;2023-02-23T05:42:06;101461.28;;;7.62;100.00
26489;BME280;14169;43.684;10.484;2023-02-23T05:44:31;101460.44;;;7.62;100.00
26489;BME280;14169;43.684;10.484;2023-02-23T05:46:56;101456.97;;;7.61;100.00
26489;BME280;14169;43.684;10.484;2023-02-23T05:49:22;101456.13;;;7.62;100.00
26489;BME280;14169;43.684;10.484;2023-02-23T05:51:48;101455.25;;;7.60;100.00
26489;BME280;14169;43.684;10.484;2023-02-23T05:54:13;101459.56;;;7.61;100.00
26489;BME280;14169;43.684;10.484;2023-02-23T05:56:40;101456.91;;;7.70;100.00
26489;BME280;14169;43.684;10.484;2023-02-23T05:59:06;101462.06;;;7.73;100.00
26489;BME280;14169;43.684;10.484;2023-02-23T06:01:31;101463.72;;;7.79;100.00
26489;BME280;14169;43.684;10.484;2023-02-23T06:03:57;101464.59;;;7.79;100.00
26489;BME280;14169;43.684;10.484;2023-02-23T06:06:23;101469.72;;;7.85;100.00
26489;BME280;14169;43.684;10.484;2023-02-23T06:08:50;101468.78;;;7.92;100.00
26489;BME280;14169;43.684;10.484;2023-02-23T06:11:16;101477.38;;;7.99;100.00
26489;BME280;14169;43.684;10.484;2023-02-23T06:13:41;101474.75;;;8.03;100.00
26489;BME280;14169;43.684;10.484;2023-02-23T06:16:07;101481.66;;;8.06;100.00
26489;BME280;14169;43.684;10.484;2023-02-23T06:18:33;101469.50;;;8.08;100.00
26489;BME280;14169;43.684;10.484;2023-02-23T06:20:59;101474.69;;;8.09;100.00
26489;BME280;14169;43.684;10.484;2023-02-23T06:23:26;101479.00;;;8.12;100.00
26489;BME280;14169;43.684;10.484;2023-02-23T06:25:52;101476.31;;;8.16;100.00
26489;BME280;14169;43.684;10.484;2023-02-23T06:28:17;101475.44;;;8.19;100.00
26489;BME280;14169;43.684;10.484;2023-02-23T06:30:43;101469.34;;;8.23;100.00
26489;BME280;14169;43.684;10.484;2023-02-23T06:33:08;101472.72;;;8.31;100.00
26489;BME280;14169;43.684;10.484;2023-02-23T06:35:34;101470.94;;;8.36;100.00
26489;BME280;14169;43.684;10.484;2023-02-23T06:38:00;101477.81;;;8.42;100.00
26489;BME280;14169;43.684;10.484;2023-02-23T06:40:26;101478.59;;;8.47;100.00
26489;BME280;14169;43.684;10.484;2023-02-23T06:42:52;101480.28;;;8.51;100.00
26489;BME280;14169;43.684;10.484;2023-02-23T06:45:18;101488.88;;;8.56;100.00
26489;BME280;14169;43.684;10.484;2023-02-23T06:47:44;101488.84;;;8.59;100.00
26489;BME280;14169;43.684;10.484;2023-02-23T06:50:10;101487.94;;;8.63;100.00
26489;BME280;14169;43.684;10.484;2023-02-23T06:52:36;101486.16;;;8.65;100.00
26489;BME280;14169;43.684;10.484;2023-02-23T06:55:02;101491.38;;;8.63;100.00
26489;BME280;14169;43.684;10.484;2023-02-23T06:57:27;101494.81;;;8.65;100.00
26489;BME280;14169;43.684;10.484;2023-02-23T06:59:53;101488.75;;;8.66;100.00
26489;BME280;14169;43.684;10.484;2023-02-23T07:02:18;101488.75;;;8.66;100.00
26489;BME280;14169;43.684;10.484;2023-02-23T07:04:44;101497.41;;;8.67;100.00
26489;BME280;14169;43.684;10.484;2023-02-23T07:07:10;101495.66;;;8.67;100.00
26489;BME280;14169;43.684;10.484;2023-02-23T07:09:38;101494.78;;;8.70;100.00
26489;BME280;14169;43.684;10.484;2023-02-23T07:12:03;101498.22;;;8.72;100.00
26489;BME280;14169;43.684;10.484;2023-02-23T07:14:30;101499.06;;;8.74;100.00
26489;BME280;14169;43.684;10.484;2023-02-23T07:16:57;101504.22;;;8.75;100.00
26489;BME280;14169;43.684;10.484;2023-02-23T07:19:23;101505.88;;;8.81;100.00
26489;BME280;14169;43.684;10.484;2023-02-23T07:21:48;101507.63;;;8.82;100.00
26489;BME280;14169;43.684;10.484;2023-02-23T07:24:14;101504.94;;;8.88;100.00
26489;BME280;14169;43.684;10.484;2023-02-23T07:26:39;101504.03;;;8.92;100.00
26489;BME280;14169;43.684;10.484;2023-02-23T07:29:09;101508.28;;;8.97;100.00
26489;BME280;14169;43.684;10.484;2023-02-23T07:31:36;101509.13;;;8.99;100.00
26489;BME280;14169;43.684;10.484;2023-02-23T07:34:02;101505.66;;;9.00;100.00
26489;BME280;14169;43.684;10.484;2023-02-23T07:36:27;101506.47;;;9.05;100.00
26489;BME280;14169;43.684;10.484;2023-02-23T07:38:53;101509.84;;;9.10;100.00
26489;BME280;14169;43.684;10.484;2023-02-23T07:41:19;101508.13;;;9.11;100.00
26489;BME280;14169;43.684;10.484;2023-02-23T07:43:45;101515.91;;;9.12;100.00
26489;BME280;14169;43.684;10.484;2023-02-23T07:46:10;101506.34;;;9.14;100.00
26489;BME280;14169;43.684;10.484;2023-02-23T07:48:37;101503.75;;;9.14;100.00
26489;BME280;14169;43.684;10.484;2023-02-23T07:51:08;101508.00;;;9.20;100.00
26489;BME280;14169;43.684;10.484;2023-02-23T07:53:34;101515.75;;;9.23;100.00
26489;BME280;14169;43.684;10.484;2023-02-23T07:55:59;101519.97;;;9.32;100.00
26489;BME280;14169;43.684;10.484;2023-02-23T07:58:28;101522.41;;;9.42;100.00
26489;BME280;14169;43.684;10.484;2023-02-23T08:00:55;101524.91;;;9.50;100.00
26489;BME280;14169;43.684;10.484;2023-02-23T08:03:21;101523.97;;;9.55;100.00
26489;BME280;14169;43.684;10.484;2023-02-23T08:05:46;101523.88;;;9.61;100.00
26489;BME280;14169;43.684;10.484;2023-02-23T08:08:11;101520.28;;;9.70;100.00
26489;BME280;14169;43.684;10.484;2023-02-23T08:10:38;101527.03;;;9.78;100.00
26489;BME280;14169;43.684;10.484;2023-02-23T08:13:04;101512.13;;;9.88;100.00
26489;BME280;14169;43.684;10.484;2023-02-23T08:15:29;101513.69;;;9.98;100.00
26489;BME280;14169;43.684;10.484;2023-02-23T08:17:56;101522.22;;;10.07;100.00
26489;BME280;14169;43.684;10.484;2023-02-23T08:20:22;101522.84;;;10.20;100.00
26489;BME280;14169;43.684;10.484;2023-02-23T08:22:52;101526.09;;;10.33;100.00
26489;BME280;14169;43.684;10.484;2023-02-23T08:25:18;101517.25;;;10.43;100.00
26489;BME280;14169;43.684;10.484;2023-02-23T08:27:44;101519.56;;;10.59;100.00
26489;BME280;14169;43.684;10.484;2023-02-23T08:30:11;101512.25;;;10.76;100.00
26489;BME280;14169;43.684;10.484;2023-02-23T08:32:38;101522.38;;;10.91;100.00
26489;BME280;14169;43.684;10.484;2023-02-23T08:35:04;101515.97;;;11.06;100.00
26489;BME280;14169;43.684;10.484;2023-02-23T08:37:31;101520.13;;;11.15;100.00
26489;BME280;14169;43.684;10.484;2023-02-23T08:39:57;101524.31;;;11.23;100.00
26489;BME280;14169;43.684;10.484;2023-02-23T08:42:23;101523.94;;;11.38;100.00
26489;BME280;14169;43.684;10.484;2023-02-23T08:44:48;101518.53;;;11.47;100.00
26489;BME280;14169;43.684;10.484;2023-02-23T08:47:15;101525.31;;;11.54;100.00
26489;BME280;14169;43.684;10.484;2023-02-23T08:49:41;101528.56;;;11.65;100.00
26489;BME280;14169;43.684;10.484;2023-02-23T08:52:06;101531.78;;;11.75;100.00
26489;BME280;14169;43.684;10.484;2023-02-23T08:54:32;101535.91;;;11.83;100.00
26489;BME280;14169;43.684;10.484;2023-02-23T08:56:57;101522.59;;;11.96;100.00
26489;BME280;14169;43.684;10.484;2023-02-23T08:59:23;101534.72;;;11.98;100.00
26489;BME280;14169;43.684;10.484;2023-02-23T09:01:50;101533.53;;;12.11;100.00
26489;BME280;14169;43.684;10.484;2023-02-23T09:04:15;101537.63;;;12.20;100.00
26489;BME280;14169;43.684;10.484;2023-02-23T09:06:42;101534.81;;;12.29;100.00
26489;BME280;14169;43.684;10.484;2023-02-23T09:09:08;101537.16;;;12.38;100.00
26489;BME280;14169;43.684;10.484;2023-02-23T09:11:33;101537.91;;;12.43;100.00
26489;BME280;14169;43.684;10.484;2023-02-23T09:13:59;101542.13;;;12.48;100.00
26489;BME280;14169;43.684;10.484;2023-02-23T09:16:24;101542.59;;;12.62;100.00
26489;BME280;14169;43.684;10.484;2023-02-23T09:18:50;101537.09;;;12.73;100.00
26489;BME280;14169;43.684;10.484;2023-02-23T09:21:18;101542.81;;;12.86;100.00
26489;BME280;14169;43.684;10.484;2023-02-23T09:23:46;101551.44;;;12.89;100.00
26489;BME280;14169;43.684;10.484;2023-02-23T09:26:14;101546.94;;;12.94;100.00
26489;BME280;14169;43.684;10.484;2023-02-23T09:28:40;101557.97;;;13.04;100.00
26489;BME280;14169;43.684;10.484;2023-02-23T09:31:08;101559.66;;;13.06;100.00
26489;BME280;14169;43.684;10.484;2023-02-23T09:33:34;101554.41;;;13.06;100.00
26489;BME280;14169;43.684;10.484;2023-02-23T09:36:03;101556.03;;;13.10;100.00
26489;BME280;14169;43.684;10.484;2023-02-23T09:38:29;101561.03;;;13.19;100.00
26489;BME280;14169;43.684;10.484;2023-02-23T09:40:55;101565.81;;;13.34;100.00
26489;BME280;14169;43.684;10.484;2023-02-23T09:48:32;101563.72;;;13.73;100.00
26489;BME280;14169;43.684;10.484;2023-02-23T09:50:59;101557.75;;;13.96;100.00
26489;BME280;14169;43.684;10.484;2023-02-23T09:53:38;101558.16;;;14.10;100.00
26489;BME280;14169;43.684;10.484;2023-02-23T09:56:20;101563.53;;;14.31;100.00
26489;BME280;14169;43.684;10.484;2023-02-23T09:58:48;101570.16;;;14.43;100.00
26489;BME280;14169;43.684;10.484;2023-02-23T10:06:51;101587.56;;;14.70;100.00
26489;BME280;14169;43.684;10.484;2023-02-23T10:12:14;101601.84;;;14.62;100.00
26489;BME280;14169;43.684;10.484;2023-02-23T10:23:15;101638.75;;;14.56;100.00
26489;BME280;14169;43.684;10.484;2023-02-23T10:25:46;101643.91;;;14.59;100.00
26489;BME280;14169;43.684;10.484;2023-02-23T10:28:17;101649.75;;;14.67;100.00
26489;BME280;14169;43.684;10.484;2023-02-23T10:30:46;101648.41;;;14.80;100.00
26489;BME280;14169;43.684;10.484;2023-02-23T10:33:27;101660.53;;;14.84;100.00
26489;BME280;14169;43.684;10.484;2023-02-23T10:35:57;101661.97;;;14.92;100.00
26489;BME280;14169;43.684;10.484;2023-02-23T10:38:25;101666.09;;;14.99;100.00
26489;BME280;14169;43.684;10.484;2023-02-23T10:40:54;101668.00;;;15.19;100.00
26489;BME280;14169;43.684;10.484;2023-02-23T10:43:20;101662.13;;;15.36;100.00
26489;BME280;14169;43.684;10.484;2023-02-23T10:45:51;101666.50;;;15.60;100.00
26489;BME280;14169;43.684;10.484;2023-02-23T10:48:22;101670.44;;;15.71;100.00
26489;BME280;14169;43.684;10.484;2023-02-23T10:50:48;101674.72;;;15.74;100.00
26489;BME280;14169;43.684;10.484;2023-02-23T10:53:29;101678.66;;;16.07;100.00
26489;BME280;14169;43.684;10.484;2023-02-23T10:58:27;101688.59;;;16.22;100.00
26489;BME280;14169;43.684;10.484;2023-02-23T11:00:56;101690.41;;;16.20;100.00
26489;BME280;14169;43.684;10.484;2023-02-23T11:03:32;101695.75;;;16.19;100.00
26489;BME280;14169;43.684;10.484;2023-02-23T11:05:58;101698.16;;;16.23;100.00
26489;BME280;14169;43.684;10.484;2023-02-23T11:11:03;101694.41;;;16.30;100.00
26489;BME280;14169;43.684;10.484;2023-02-23T11:13:41;101694.56;;;16.26;100.00
26489;BME280;14169;43.684;10.484;2023-02-23T11:16:11;101691.69;;;16.10;100.00
26489;BME280;14169;43.684;10.484;2023-02-23T11:18:47;101694.03;;;16.18;100.00
26489;BME280;14169;43.684;10.484;2023-02-23T11:21:20;101696.03;;;16.11;100.00
26489;BME280;14169;43.684;10.484;2023-02-23T11:23:49;101692.97;;;16.00;100.00
26489;BME280;14169;43.684;10.484;2023-02-23T11:26:39;101690.25;;;15.80;100.00
26489;BME280;14169;43.684;10.484;2023-02-23T11:29:23;101689.69;;;15.72;100.00
26489;BME280;14169;43.684;10.484;2023-02-23T11:31:52;101681.06;;;15.68;100.00
26489;BME280;14169;43.684;10.484;2023-02-23T11:34:36;101679.78;;;15.57;100.00
26489;BME280;14169;43.684;10.484;2023-02-23T11:39:58;101667.94;;;15.68;100.00
26489;BME280;14169;43.684;10.484;2023-02-23T11:47:29;101668.78;;;15.69;100.00
26489;BME280;14169;43.684;10.484;2023-02-23T11:49:56;101662.78;;;15.65;100.00
26489;BME280;14169;43.684;10.484;2023-02-23T11:52:23;101661.50;;;15.54;100.00
26489;BME280;14169;43.684;10.484;2023-02-23T11:54:51;101661.38;;;15.57;100.00
26489;BME280;14169;43.684;10.484;2023-02-23T11:57:29;101660.34;;;15.61;100.00
26489;BME280;14169;43.684;10.484;2023-02-23T11:59:59;101654.09;;;15.63;100.00
26489;BME280;14169;43.684;10.484;2023-02-23T12:02:30;101651.25;;;15.69;100.00
26489;BME280;14169;43.684;10.484;2023-02-23T12:05:08;101651.09;;;15.74;100.00
26489;BME280;14169;43.684;10.484;2023-02-23T12:07:41;101644.91;;;15.75;100.00
26489;BME280;14169;43.684;10.484;2023-02-23T12:20:47;101631.72;;;15.76;100.00
26489;BME280;14169;43.684;10.484;2023-02-23T12:23:20;101631.47;;;15.61;100.00
26489;BME280;14169;43.684;10.484;2023-02-23T12:25:48;101632.97;;;15.45;100.00
26489;BME280;14169;43.684;10.484;2023-02-23T12:28:18;101632.28;;;15.61;100.00
26489;BME280;14169;43.684;10.484;2023-02-23T12:30:52;101633.63;;;15.50;100.00
26489;BME280;14169;43.684;10.484;2023-02-23T12:33:40;101625.81;;;15.48;100.00
26489;BME280;14169;43.684;10.484;2023-02-23T12:36:34;101620.06;;;15.39;100.00
26489;BME280;14169;43.684;10.484;2023-02-23T12:39:15;101616.41;;;15.43;100.00
26489;BME280;14169;43.684;10.484;2023-02-23T12:42:06;101618.81;;;15.49;100.00
26489;BME280;14169;43.684;10.484;2023-02-23T12:44:48;101613.00;;;15.62;100.00
26489;BME280;14169;43.684;10.484;2023-02-23T12:49:49;101604.66;;;15.74;100.00
26489;BME280;14169;43.684;10.484;2023-02-23T12:52:24;101600.28;;;15.95;100.00
26489;BME280;14169;43.684;10.484;2023-02-23T12:54:51;101597.22;;;16.27;100.00
26489;BME280;14169;43.684;10.484;2023-02-23T12:57:31;101601.72;;;16.45;100.00
26489;BME280;14169;43.684;10.484;2023-02-23T13:06:07;101597.19;;;16.89;100.00
26489;BME280;14169;43.684;10.484;2023-02-23T13:16:56;101599.47;;;16.97;100.00
26489;BME280;14169;43.684;10.484;2023-02-23T13:19:31;101597.72;;;17.16;100.00
26489;BME280;14169;43.684;10.484;2023-02-23T13:22:46;101592.28;;;17.76;100.00
26489;BME280;14169;43.684;10.484;2023-02-23T13:24:53;101593.94;;;18.66;100.00
26489;BME280;14169;43.684;10.484;2023-02-23T13:27:36;101583.34;;;18.83;100.00
26489;BME280;14169;43.684;10.484;2023-02-23T13:30:08;101567.44;;;19.17;100.00
26489;BME280;14169;43.684;10.484;2023-02-23T13:32:34;101569.50;;;19.12;100.00
26489;BME280;14169;43.684;10.484;2023-02-23T13:35:09;101566.84;;;19.12;100.00
26489;BME280;14169;43.684;10.484;2023-02-23T13:37:43;101562.06;;;19.96;100.00
26489;BME280;14169;43.684;10.484;2023-02-23T13:56:25;101524.94;;;20.85;100.00
26489;BME280;14169;43.684;10.484;2023-02-23T13:58:58;101520.59;;;21.53;100.00
26489;BME280;14169;43.684;10.484;2023-02-23T14:01:34;101515.25;;;21.80;100.00
26489;BME280;14169;43.684;10.484;2023-02-23T14:04:03;101516.72;;;22.11;100.00
26489;BME280;14169;43.684;10.484;2023-02-23T14:06:30;101515.19;;;22.46;100.00
26489;BME280;14169;43.684;10.484;2023-02-23T14:09:09;101522.84;;;22.25;100.00
26489;BME280;14169;43.684;10.484;2023-02-23T14:11:51;101518.25;;;21.88;100.00
26489;BME280;14169;43.684;10.484;2023-02-23T14:22:17;101510.31;;;20.64;100.00
26489;BME280;14169;43.684;10.484;2023-02-23T14:24:46;101507.78;;;20.63;100.00
26489;BME280;14169;43.684;10.484;2023-02-23T14:27:35;101505.88;;;20.51;100.00
26489;BME280;14169;43.684;10.484;2023-02-23T14:32:52;101506.84;;;19.45;100.00
26489;BME280;14169;43.684;10.484;2023-02-23T14:38:28;101500.22;;;19.83;100.00
26489;BME280;14169;43.684;10.484;2023-02-23T14:40:55;101505.50;;;19.99;100.00
26489;BME280;14169;43.684;10.484;2023-02-23T14:46:11;101507.88;;;19.27;100.00
26489;BME280;14169;43.684;10.484;2023-02-23T14:48:39;101515.56;;;18.99;100.00
26489;BME280;14169;43.684;10.484;2023-02-23T14:53:36;101520.44;;;18.41;100.00
26489;BME280;14169;43.684;10.484;2023-02-23T14:56:04;101513.59;;;17.86;100.00
26489;BME280;14169;43.684;10.484;2023-02-23T14:58:41;101520.75;;;17.48;100.00
26489;BME280;14169;43.684;10.484;2023-02-23T15:01:06;101513.81;;;17.27;100.00